Time;durP1;ratioP1;P1;durP2;ratioP2;P2;SDS_P1;SDS_P2;PMS_P1;PMS_P2;Temp;Humidity;BMP_temperature;BMP_pressure;BME280_temperature;BME280_humidity;BME280_pressure;Samples;Min_cycle;Max_cycle;Signal;HPM_P1;HPM_P2
2022/04/20 00:01:42;;;;;;;1.65;1.10;;;12.30;58.80;;;12.48;43.13;100872.78;5126774;29;20070;-72
2022/04/20 00:04:14;;;;;;;4.22;1.85;;;12.30;59.90;;;12.42;43.14;100877.84;5127191;29;20389;-71
2022/04/20 00:06:46;;;;;;;2.95;1.50;;;12.30;60.00;;;12.37;43.40;100875.94;5127146;29;20057;-71
2022/04/20 00:09:18;;;;;;;2.35;1.40;;;12.20;60.50;;;12.29;44.24;100873.09;5126994;29;20051;-71
2022/04/20 00:11:50;;;;;;;3.60;1.40;;;12.10;61.10;;;12.22;44.87;100872.03;5126965;29;20051;-70
2022/04/20 00:14:23;;;;;;;3.65;1.50;;;12.00;62.00;;;12.13;44.73;100877.00;5127027;29;20560;-70
2022/04/20 00:16:55;;;;;;;4.30;1.67;;;12.00;61.60;;;12.09;45.45;100867.28;5126726;29;20057;-71
2022/04/20 00:19:27;;;;;;;1.92;1.02;;;11.90;62.70;;;12.03;46.05;100874.94;5127183;29;20495;-70
2022/04/20 00:21:59;;;;;;;2.95;1.48;;;11.80;63.20;;;11.96;46.35;100878.22;5126328;29;20051;-71
2022/04/20 00:24:31;;;;;;;1.63;1.10;;;11.80;63.60;;;11.89;46.81;100874.53;5126615;29;20047;-71
2022/04/20 00:27:04;;;;;;;2.60;1.50;;;11.70;64.00;;;11.82;47.38;100869.94;5127026;29;20051;-71
2022/04/20 00:29:37;;;;;;;1.88;1.15;;;11.60;64.60;;;11.73;47.67;100869.59;5127068;28;20061;-70
2022/04/20 00:32:09;;;;;;;2.13;1.30;;;11.50;65.00;;;11.66;48.11;100868.53;5126334;28;20047;-69
2022/04/20 00:34:41;;;;;;;2.85;1.25;;;11.50;65.40;;;11.56;48.65;100866.50;5126583;29;20051;-71
2022/04/20 00:37:13;;;;;;;2.42;1.30;;;11.40;65.90;;;11.49;49.38;100874.09;5126297;29;20051;-71
2022/04/20 00:39:45;;;;;;;2.80;1.40;;;11.30;66.60;;;11.36;49.93;100868.47;5126193;29;20057;-70
2022/04/20 00:42:17;;;;;;;1.85;1.42;;;11.20;67.10;;;11.28;50.49;100875.16;5126185;29;20047;-71
2022/04/20 00:44:51;;;;;;;2.05;1.70;;;11.20;67.80;;;11.20;51.05;100870.50;5126434;29;20377;-71
2022/04/20 00:47:25;;;;;;;3.78;1.70;;;11.00;68.30;;;11.11;51.45;100876.31;5126200;29;20051;-71
2022/04/20 00:49:59;;;;;;;3.67;1.30;;;11.00;68.60;;;11.01;51.82;100872.47;5126066;28;20134;-71
2022/04/20 00:52:31;;;;;;;1.38;1.15;;;10.90;69.10;;;10.93;52.24;100873.06;5126132;29;20044;-71
2022/04/20 00:55:04;;;;;;;4.18;1.30;;;10.80;69.50;;;10.85;52.75;100867.59;5126413;29;20051;-71
2022/04/20 00:57:36;;;;;;;3.03;1.80;;;10.70;69.90;;;10.76;52.82;100868.16;5126169;29;20415;-72
2022/04/20 01:00:11;;;;;;;2.58;1.35;;;10.60;70.10;;;10.71;53.14;100879.25;5125877;29;20278;-70
2022/04/20 01:02:43;;;;;;;3.13;1.50;;;10.60;70.40;;;10.63;53.72;100885.91;5125479;28;20043;-71
2022/04/20 01:05:15;;;;;;;2.83;1.38;;;10.50;71.10;;;10.55;53.91;100883.00;5126107;29;20488;-70
2022/04/20 01:07:47;;;;;;;2.40;1.90;;;10.40;71.20;;;10.48;54.38;100881.91;5125683;29;20058;-72
2022/04/20 01:10:19;;;;;;;4.55;1.70;;;10.40;71.80;;;10.42;54.94;100875.59;5125611;29;20512;-71
2022/04/20 01:12:51;;;;;;;3.25;1.42;;;10.30;72.70;;;10.34;55.26;100872.69;5125797;29;20073;-71
2022/04/20 01:15:24;;;;;;;2.88;1.38;;;10.20;72.90;;;10.28;55.53;100877.69;5125513;29;20062;-71
2022/04/20 01:17:56;;;;;;;2.97;1.42;;;10.20;73.40;;;10.21;55.84;100866.13;5125775;29;20051;-71
2022/04/20 01:20:32;;;;;;;2.90;1.52;;;10.20;73.90;;;10.15;56.46;100865.88;5125618;29;20058;-70
2022/04/20 01:23:04;;;;;;;1.73;1.30;;;10.10;74.60;;;10.12;56.67;100873.59;5125325;29;20047;-71
2022/04/20 01:25:36;;;;;;;2.78;1.80;;;10.00;75.00;;;10.09;56.60;100875.19;5125537;29;20419;-70
2022/04/20 01:28:09;;;;;;;2.10;1.40;;;10.00;75.30;;;10.03;56.73;100871.50;5125326;29;20047;-71
2022/04/20 01:30:41;;;;;;;1.65;1.13;;;9.90;75.60;;;9.98;57.14;100867.88;5125520;29;20493;-71
2022/04/20 01:33:13;;;;;;;2.75;1.42;;;9.90;76.20;;;9.94;57.34;100873.78;5125105;29;20047;-71
2022/04/20 01:35:47;;;;;;;2.17;1.50;;;9.90;77.10;;;9.91;57.67;100872.75;5125358;29;20050;-71
2022/04/20 01:38:19;;;;;;;4.03;1.40;;;9.80;77.50;;;9.86;58.17;100875.19;5125058;29;20139;-71
2022/04/20 01:40:52;;;;;;;2.05;1.42;;;9.80;78.30;;;9.83;58.26;100872.47;5125130;29;20055;-70
2022/04/20 01:43:24;;;;;;;4.75;1.88;;;9.70;78.70;;;9.79;58.02;100870.59;5125004;29;20377;-71
2022/04/20 01:45:56;;;;;;;3.92;2.13;;;9.70;79.10;;;9.77;58.09;100867.00;5124884;28;20485;-73
2022/04/20 01:48:28;;;;;;;2.65;1.30;;;9.70;79.70;;;9.72;58.44;100863.38;5125255;29;20522;-71
2022/04/20 01:53:51;;;;;;;4.53;1.50;;;9.60;79.50;;;9.73;57.24;100863.41;5124941;29;20043;-70
2022/04/20 01:56:23;;;;;;;2.15;1.55;;;9.60;79.90;;;9.74;56.30;100862.59;5124890;29;20142;-72
2022/04/20 01:58:55;;;;;;;2.08;1.45;;;9.60;78.70;;;9.77;55.17;100864.41;5124660;29;20057;-71
2022/04/20 02:04:16;;;;;;;3.30;1.35;;;9.70;76.90;;;9.87;54.18;100860.47;5124788;29;20057;-71
2022/04/20 02:06:49;;;;;;;2.33;1.40;;;9.70;76.70;;;9.91;53.16;100864.94;5124648;29;20047;-70
2022/04/20 02:09:22;;;;;;;4.97;1.58;;;9.80;75.70;;;9.93;52.32;100866.78;5124919;29;20143;-72
2022/04/20 02:11:54;;;;;;;3.00;1.60;;;9.80;74.60;;;9.97;51.94;100870.38;5124582;29;20047;-72
2022/04/20 02:14:26;;;;;;;4.40;1.60;;;9.90;73.60;;;9.96;50.93;100869.50;5123932;28;20043;-71
2022/04/20 02:16:58;;;;;;;2.25;1.25;;;9.90;72.20;;;9.98;50.35;100867.88;5124873;29;20051;-70
2022/04/20 02:19:30;;;;;;;4.25;1.70;;;9.90;71.60;;;10.01;50.49;100873.19;5124389;29;20047;-71
2022/04/20 02:22:05;;;;;;;1.63;1.30;;;10.00;71.50;;;10.04;50.15;100862.91;5124105;29;20047;-72
2022/04/20 02:24:36;;;;;;;2.70;1.40;;;10.00;71.20;;;10.03;49.84;100874.13;5124356;28;20055;-72
2022/04/20 02:27:10;;;;;;;3.22;1.67;;;10.10;70.50;;;9.99;49.77;100868.75;5124154;29;20059;-70
2022/04/20 02:29:42;;;;;;;1.45;1.10;;;10.10;70.20;;;9.94;49.74;100870.28;5124200;29;20059;-70
2022/04/20 02:32:14;;;;;;;2.55;1.33;;;10.10;70.10;;;9.94;49.73;100873.78;5124346;29;20057;-71
2022/04/20 02:34:46;;;;;;;2.03;1.35;;;10.00;70.20;;;9.92;49.50;100867.63;5124250;29;20093;-71
2022/04/20 02:37:19;;;;;;;4.85;1.67;;;10.00;70.00;;;9.93;49.80;100874.59;5124152;29;20050;-71
2022/04/20 02:39:51;;;;;;;3.28;1.67;;;10.00;70.00;;;9.98;49.61;100887.81;5124242;29;20047;-71
2022/04/20 02:42:23;;;;;;;1.85;1.48;;;10.00;70.00;;;9.95;49.30;100880.75;5124304;29;20058;-71
2022/04/20 02:44:55;;;;;;;3.05;1.50;;;10.00;69.90;;;9.94;49.60;100888.50;5124334;29;20052;-72
2022/04/20 02:47:27;;;;;;;5.30;1.67;;;10.00;70.00;;;9.93;49.37;100882.41;5124135;29;20245;-70
2022/04/20 02:49:59;;;;;;;2.55;1.55;;;10.00;69.80;;;9.95;49.51;100893.78;5124112;29;20051;-71
2022/04/20 02:52:32;;;;;;;5.13;1.55;;;10.00;69.90;;;9.96;49.43;100892.94;5123955;29;20053;-70
2022/04/20 02:55:05;;;;;;;4.50;1.42;;;10.00;69.70;;;9.90;49.54;100887.50;5123938;29;20047;-70
2022/04/20 02:57:37;;;;;;;3.50;1.90;;;9.90;69.80;;;9.88;49.40;100888.28;5124136;29;20423;-71
2022/04/20 03:00:12;;;;;;;3.15;1.70;;;10.00;70.10;;;9.82;49.81;100888.91;5123984;29;20053;-71
2022/04/20 03:02:44;;;;;;;2.65;1.48;;;9.90;70.20;;;9.82;49.87;100888.91;5123650;28;20051;-71
2022/04/20 03:05:16;;;;;;;2.90;1.60;;;9.90;70.30;;;9.78;49.72;100890.53;5123988;29;20130;-71
2022/04/20 03:07:49;;;;;;;2.42;1.65;;;9.90;70.60;;;9.72;50.10;100879.00;5123965;29;20066;-71
2022/04/20 03:10:22;;;;;;;2.88;1.83;;;9.90;70.60;;;9.63;49.99;100881.22;5123749;28;20058;-70
2022/04/20 03:12:55;;;;;;;4.57;1.60;;;9.80;70.40;;;9.56;50.52;100885.28;5123420;29;20054;-71
2022/04/20 03:15:27;;;;;;;2.80;1.60;;;9.70;70.60;;;9.54;50.43;100883.44;5123685;29;20059;-70
2022/04/20 03:17:59;;;;;;;2.63;1.65;;;9.70;70.90;;;9.51;50.51;100887.69;5123567;29;20055;-71
2022/04/20 03:20:31;;;;;;;6.80;1.77;;;9.70;70.80;;;9.42;50.52;100884.72;5123841;29;20047;-72
2022/04/20 03:23:06;;;;;;;2.78;1.85;;;9.60;71.30;;;9.41;50.74;100884.66;5123845;29;20058;-72
2022/04/20 03:25:37;;;;;;;4.07;1.80;;;9.60;71.40;;;9.38;50.74;100885.41;5124341;28;20055;-73
2022/04/20 03:28:09;;;;;;;1.98;1.40;;;9.60;71.50;;;9.42;50.66;100889.94;5128021;29;20066;-71
2022/04/20 03:30:41;;;;;;;3.40;1.60;;;9.60;71.70;;;9.36;50.90;100884.47;5127845;29;20063;-71
2022/04/20 03:33:14;;;;;;;2.38;1.42;;;9.60;71.70;;;9.32;51.00;100892.97;5127392;29;20054;-70
2022/04/20 03:35:46;;;;;;;2.80;1.55;;;9.50;71.80;;;9.31;51.06;100893.78;5209548;23;20133;-70
2022/04/20 03:38:19;;;;;;;2.22;1.20;;;9.50;72.00;;;9.28;51.31;100890.19;5167684;28;20050;-70
2022/04/20 03:40:51;;;;;;;2.38;1.95;;;9.40;72.00;;;9.31;51.38;100885.09;5167781;28;20402;-71
2022/04/20 03:43:24;;;;;;;2.95;1.50;;;9.40;72.30;;;9.34;51.29;100893.06;5167189;28;20505;-72
2022/04/20 03:45:56;;;;;;;3.53;1.55;;;9.50;72.40;;;9.34;51.38;100901.75;5167732;28;20066;-70
2022/04/20 03:48:28;;;;;;;3.80;1.80;;;9.40;72.40;;;9.33;50.94;100899.97;5192818;23;20053;-89
2022/04/20 03:51:00;;;;;;;2.15;1.60;;;9.40;72.50;;;9.25;51.11;100901.34;5163054;28;20057;-90
2022/04/20 03:53:33;;;;;;;3.45;1.67;;;9.40;72.50;;;9.14;51.24;100897.41;5170096;28;20053;-90
2022/04/20 03:56:06;;;;;;;4.15;2.17;;;9.40;72.50;;;9.19;51.57;100906.28;5172439;28;20056;-90
2022/04/20 03:58:38;;;;;;;2.30;1.50;;;9.40;72.80;;;9.17;51.22;100910.53;5171149;28;20060;-90
2022/04/20 04:01:10;;;;;;;2.58;1.70;;;9.30;72.60;;;9.21;51.52;100909.84;5171287;28;20046;-91
2022/04/20 04:03:42;;;;;;;2.45;1.60;;;9.40;72.90;;;9.15;51.62;100907.00;5171633;28;20052;-90
2022/04/20 04:06:14;;;;;;;4.28;2.10;;;9.30;73.00;;;9.16;51.26;100906.16;5171567;28;20421;-91
2022/04/20 04:08:47;;;;;;;5.38;1.95;;;9.30;73.00;;;9.10;51.77;100911.09;5171692;28;20058;-90
2022/04/20 04:11:19;;;;;;;2.25;1.42;;;9.30;73.00;;;9.12;51.68;100910.34;5173990;28;20042;-91
2022/04/20 04:13:51;;;;;;;4.22;1.73;;;9.30;73.30;;;9.14;51.74;100919.13;5173414;28;20046;-90
2022/04/20 04:16:23;;;;;;;2.60;1.50;;;9.30;73.50;;;9.15;51.71;100920.00;5171820;28;20051;-89
2022/04/20 04:18:55;;;;;;;3.10;1.80;;;9.30;73.50;;;9.12;51.57;100914.66;5171893;28;20042;-90
2022/04/20 04:21:28;;;;;;;4.13;1.60;;;9.30;73.70;;;9.09;52.10;100924.94;5171757;28;20056;-92
2022/04/20 04:24:02;;;;;;;3.70;2.10;;;9.20;73.80;;;8.97;52.18;100915.78;5171547;28;20413;-90
2022/04/20 04:26:34;;;;;;;2.40;1.50;;;9.20;74.00;;;8.98;52.06;100927.94;5168219;28;20046;-91
2022/04/20 04:29:06;;;;;;;3.28;1.70;;;9.20;74.20;;;9.04;51.89;100936.84;5171385;28;20053;-92
2022/04/20 04:31:42;;;;;;;7.13;2.17;;;9.20;74.40;;;9.05;52.17;100917.81;5151020;28;20467;-90
2022/04/20 04:34:14;;;;;;;5.03;1.80;;;9.20;74.30;;;9.00;52.32;100925.44;5168036;28;20058;-89
2022/04/20 04:36:46;;;;;;;3.42;1.92;;;9.20;74.30;;;8.95;52.29;100932.16;5172225;28;20052;-89
2022/04/20 04:39:21;;;;;;;3.83;1.63;;;9.20;74.50;;;8.89;52.36;100921.47;5173742;28;20057;-89
2022/04/20 04:41:53;;;;;;;3.88;1.60;;;9.10;74.70;;;8.91;52.55;100931.13;5172990;28;20054;-90
2022/04/20 04:44:25;;;;;;;2.47;1.35;;;9.10;74.90;;;8.94;52.67;100926.06;5173452;28;20489;-90
2022/04/20 04:49:46;;;;;;;2.40;1.50;;;9.10;75.10;;;8.98;52.62;100932.25;5187524;28;20050;-91
2022/04/20 04:52:18;;;;;;;3.67;1.55;;;9.10;75.10;;;8.98;52.56;100925.34;5187824;28;20085;-91
2022/04/20 04:54:52;;;;;;;2.88;1.75;;;9.10;75.30;;;8.97;52.28;100931.38;5183090;28;20082;-92
2022/04/20 04:57:24;;;;;;;3.85;1.80;;;9.10;75.20;;;8.98;52.36;100937.47;5170894;28;20073;-90
2022/04/20 04:59:56;;;;;;;2.88;1.60;;;9.10;75.50;;;8.98;52.86;100946.16;5170523;28;20061;-90
2022/04/20 05:02:28;;;;;;;4.88;1.85;;;9.10;75.50;;;8.98;52.79;100946.16;5166969;28;20047;-90
2022/04/20 05:04:59;;;;;;;2.80;1.70;;;9.10;75.80;;;9.03;52.59;100950.69;5172213;28;20042;-90
2022/04/20 05:07:32;;;;;;;1.88;1.60;;;9.10;75.80;;;9.03;52.60;100938.56;5172551;28;20042;-88
2022/04/20 05:10:06;;;;;;;2.92;2.00;;;9.20;75.90;;;9.01;52.76;100948.03;5168934;28;20416;-91
2022/04/20 05:12:38;;;;;;;2.70;1.55;;;9.20;75.80;;;9.04;52.84;100945.53;5169968;28;20068;-90
2022/04/20 05:15:10;;;;;;;3.80;1.73;;;9.20;76.20;;;9.09;52.57;100950.94;5170351;28;20046;-90
2022/04/20 05:17:42;;;;;;;2.47;1.60;;;9.20;75.80;;;9.03;52.29;100935.06;5170137;28;20054;-90
2022/04/20 05:20:14;;;;;;;3.95;1.55;;;9.30;75.80;;;9.18;52.48;100952.22;5169595;28;20050;-91
2022/04/20 05:22:46;;;;;;;2.83;1.60;;;9.30;76.00;;;9.12;52.30;100936.34;5171823;28;20042;-90
2022/04/20 05:25:20;;;;;;;2.13;1.30;;;9.30;75.60;;;9.27;52.29;100945.66;5169942;28;20046;-90
2022/04/20 05:27:52;;;;;;;2.75;1.63;;;9.40;75.70;;;9.44;52.05;100950.72;5168887;28;20054;-90
2022/04/20 05:30:24;;;;;;;3.10;1.63;;;9.50;75.50;;;10.06;51.43;100949.78;5168743;28;20049;-89
2022/04/20 05:32:56;;;;;;;1.90;1.50;;;9.80;76.20;;;11.20;49.49;100938.34;5163837;28;20058;-86
2022/04/20 05:35:28;;;;;;;2.50;1.33;;;10.50;75.20;;;12.42;46.10;100947.53;5175224;28;20057;-88
2022/04/20 05:43:41;;;;;;;2.97;1.38;;;13.10;64.60;;;14.77;39.79;100953.47;5174351;28;20078;-88
2022/04/20 05:46:16;;;;;;;2.70;1.50;;;13.90;62.50;;;15.50;38.86;100958.34;5176924;28;20050;-86
2022/04/20 05:48:48;;;;;;;4.25;1.80;;;14.50;60.70;;;15.93;37.42;100959.97;5173779;28;20053;-86
2022/04/20 05:51:20;;;;;;;3.33;1.40;;;15.10;58.40;;;16.11;36.30;100962.00;5172142;28;20058;-85
2022/04/20 05:53:52;;;;;;;2.22;1.60;;;15.50;56.50;;;16.16;36.26;100962.94;5178268;28;20050;-85
2022/04/20 05:56:26;;;;;;;2.60;1.60;;;15.70;56.20;;;16.32;35.74;100964.94;5178181;28;20054;-85
2022/04/20 05:58:58;;;;;;;2.72;1.98;;;15.90;55.70;;;16.41;35.24;100959.78;5175746;28;20058;-86
2022/04/20 06:01:30;;;;;;;3.22;1.50;;;16.10;54.70;;;16.38;35.35;100962.41;5173220;28;20064;-88
2022/04/20 06:04:02;;;;;;;3.15;1.45;;;16.20;54.40;;;16.43;35.54;100958.09;5172110;28;20055;-84
2022/04/20 06:06:34;;;;;;;2.42;1.40;;;16.20;54.40;;;16.36;34.96;100956.22;5164442;28;20054;-84
2022/04/20 06:09:06;;;;;;;4.22;1.65;;;16.30;53.60;;;16.33;35.14;100950.03;5169853;28;20054;-85
2022/04/20 06:11:40;;;;;;;3.72;1.73;;;16.40;53.70;;;16.34;35.35;100957.94;5162665;28;20432;-85
2022/04/20 06:14:12;;;;;;;3.55;1.45;;;16.40;53.60;;;16.29;34.80;100965.78;5172896;28;20050;-86
2022/04/20 06:16:45;;;;;;;3.85;1.70;;;16.40;52.90;;;16.14;35.31;100962.94;5167831;28;20058;-85
2022/04/20 06:19:17;;;;;;;2.03;1.50;;;16.40;53.10;;;15.91;35.35;100951.16;5172866;28;20057;-86
2022/04/20 06:21:49;;;;;;;2.97;1.80;;;16.30;53.10;;;15.95;35.18;100968.75;5171502;28;20060;-86
2022/04/20 06:24:21;;;;;;;2.83;1.85;;;16.20;53.00;;;15.90;35.85;100975.69;5170797;28;20061;-83
2022/04/20 06:26:54;;;;;;;5.15;1.90;;;16.10;53.80;;;16.23;35.83;100970.94;5172331;28;20054;-84
2022/04/20 06:29:26;;;;;;;3.35;1.90;;;16.20;53.90;;;16.78;34.45;100970.84;5172450;28;20419;-85
2022/04/20 06:31:58;;;;;;;4.47;1.90;;;16.50;52.80;;;17.05;33.21;100971.16;5172066;28;20050;-85
2022/04/20 06:34:30;;;;;;;3.30;1.67;;;16.80;51.40;;;16.74;33.58;100975.16;5172507;28;20065;-85
2022/04/20 06:37:03;;;;;;;3.13;1.70;;;16.80;51.40;;;16.85;34.35;100974.44;5171939;28;20050;-85
2022/04/20 06:39:35;;;;;;;2.38;1.75;;;16.70;52.30;;;17.09;33.58;100977.38;5172645;28;20050;-86
2022/04/20 06:42:09;;;;;;;2.50;1.30;;;16.90;51.90;;;17.42;34.40;100982.09;5171653;28;20054;-81
2022/04/20 06:44:40;;;;;;;2.85;1.60;;;17.10;52.70;;;17.76;33.64;100982.44;5169446;28;20058;-81
2022/04/20 06:47:12;;;;;;;4.28;1.75;;;17.40;52.10;;;18.27;32.42;100992.50;5169382;28;20420;-80
2022/04/20 06:49:44;;;;;;;3.47;1.60;;;17.90;50.90;;;18.69;31.43;100986.59;5169503;28;20065;-79
2022/04/20 07:00:47;;;;;;;2.67;1.50;;;18.50;48.90;;;18.85;30.64;100990.19;5169479;28;20082;-80
2022/04/20 07:03:19;;;;;;;3.53;1.80;;;18.60;48.50;;;19.02;29.99;100990.25;5169331;28;20061;-81
2022/04/20 07:05:51;;;;;;;4.50;1.63;;;18.80;48.00;;;19.13;29.55;100988.53;5170816;28;20493;-81
2022/04/20 07:08:23;;;;;;;2.85;1.60;;;18.90;47.20;;;19.19;28.93;100972.69;5169035;28;20088;-81
2022/04/20 07:10:55;;;;;;;4.60;1.73;;;19.00;46.30;;;19.29;28.81;100984.16;5168546;28;20051;-80
2022/04/20 07:13:29;;;;;;;3.28;1.60;;;19.10;46.60;;;19.58;29.29;100976.31;5168797;28;20421;-80
2022/04/20 07:16:01;;;;;;;3.97;1.50;;;19.30;47.00;;;19.97;27.00;100974.53;5170873;28;20053;-80
2022/04/20 07:18:32;;;;;;;3.30;1.58;;;19.50;45.00;;;19.79;27.01;100971.00;5169234;28;20463;-80
2022/04/20 07:21:04;;;;;;;2.40;1.63;;;19.50;44.60;;;19.55;27.95;100976.25;5167947;28;20047;-86
2022/04/20 07:23:37;;;;;;;5.15;1.70;;;19.40;45.10;;;19.44;27.32;100970.97;5171322;28;20047;-86
2022/04/20 07:26:09;;;;;;;2.10;1.33;;;19.30;44.30;;;19.36;26.88;100961.25;5170748;28;20225;-85
2022/04/20 07:28:42;;;;;;;1.65;1.30;;;19.20;43.70;;;19.56;26.87;100970.09;5171078;28;20050;-84
2022/04/20 07:31:14;;;;;;;2.40;1.33;;;19.30;43.90;;;19.81;26.10;100964.84;5170734;28;20053;-86
2022/04/20 07:33:46;;;;;;;6.25;1.63;;;19.50;43.50;;;19.90;25.66;100963.09;5170674;28;20052;-84
2022/04/20 07:36:18;;;;;;;3.38;1.40;;;19.50;42.80;;;20.01;25.33;100971.00;5171509;28;20068;-84
2022/04/20 07:38:50;;;;;;;2.67;1.48;;;19.50;42.40;;;19.83;25.37;100977.19;5170550;28;20405;-84
2022/04/20 07:41:22;;;;;;;3.33;1.40;;;19.50;42.30;;;19.72;25.09;100974.53;5170777;28;20058;-84
2022/04/20 07:43:56;;;;;;;2.47;1.15;;;19.50;41.80;;;19.89;25.35;100973.69;5171474;28;20046;-84
2022/04/20 07:46:28;;;;;;;2.13;1.27;;;19.50;42.20;;;20.06;25.31;100982.47;5171186;28;20046;-86
2022/04/20 07:50:17;;;;;;;3.40;1.52;;;19.60;42.40;;;20.28;24.52;100985.97;5170760;28;20053;-85
2022/04/20 07:51:53;;;;;;;1.88;1.20;;;19.70;41.80;;;20.70;24.03;100974.41;5169399;28;20504;-85
2022/04/20 07:54:25;;;;;;;1.90;1.25;;;19.90;41.40;;;20.93;24.30;100979.63;5170332;28;20089;-84
2022/04/20 07:56:57;;;;;;;2.65;1.52;;;20.00;42.40;;;21.22;24.24;100984.75;5169851;28;20050;-85
2022/04/20 07:59:30;;;;;;;2.10;1.27;;;20.20;41.90;;;21.59;23.85;100989.84;5168675;28;20057;-85
2022/04/20 08:02:02;;;;;;;3.88;1.55;;;20.40;41.60;;;21.66;23.38;100987.13;5168208;28;20059;-85
2022/04/20 08:04:34;;;;;;;3.75;1.20;;;20.60;41.00;;;22.00;23.10;100986.84;5168222;28;20057;-85
2022/04/20 08:07:07;;;;;;;2.78;1.50;;;20.70;40.80;;;22.31;22.85;100987.47;5167099;28;20061;-87
2022/04/20 08:09:39;;;;;;;4.43;1.30;;;20.90;41.00;;;22.66;22.64;100979.09;5170931;28;20046;-85
2022/04/20 08:12:11;;;;;;;3.45;1.30;;;21.10;41.30;;;23.50;21.74;100970.00;5170282;28;20046;-86
2022/04/20 08:14:44;;;;;;;3.03;1.33;;;21.40;40.20;;;23.76;21.52;100977.59;5174913;28;20047;-86
2022/04/20 08:17:16;;;;;;;2.22;1.40;;;21.70;40.20;;;24.23;21.11;100977.66;5174589;28;20053;-85
2022/04/20 08:19:48;;;;;;;3.05;1.35;;;22.00;39.60;;;24.50;20.86;100976.28;5175235;28;20046;-85
2022/04/20 08:22:22;;;;;;;1.70;1.27;;;22.20;39.40;;;24.74;19.99;100981.13;5175514;28;20054;-85
2022/04/20 08:24:54;;;;;;;3.80;1.35;;;22.30;38.30;;;25.00;19.58;100988.56;5179002;28;20046;-85
2022/04/20 08:27:26;;;;;;;2.67;1.42;;;22.40;38.40;;;25.00;19.05;100980.56;5174949;28;20116;-85
2022/04/20 08:29:59;;;;;;;3.53;1.40;;;22.40;37.50;;;24.28;18.92;100976.66;5173751;28;20520;-86
2022/04/20 08:32:32;;;;;;;3.65;1.30;;;22.10;36.70;;;24.87;18.91;100973.75;5174627;28;20054;-85
2022/04/20 08:35:05;;;;;;;4.00;1.50;;;22.10;37.10;;;24.99;18.82;100986.81;5176065;28;20053;-86
2022/04/20 08:37:37;;;;;;;2.67;1.20;;;22.10;37.30;;;24.80;18.59;100983.66;5176092;28;20058;-87
2022/04/20 08:40:11;;;;;;;3.25;1.40;;;22.10;36.90;;;25.29;18.29;100984.41;5176586;28;20054;-86
2022/04/20 08:42:45;;;;;;;2.63;1.40;;;22.40;36.60;;;25.87;17.45;100983.91;5176156;28;20054;-86
2022/04/20 08:45:19;;;;;;;3.00;1.60;;;22.80;35.80;;;26.58;17.13;100985.59;5174928;28;20049;-85
2022/04/20 08:47:51;;;;;;;3.72;1.50;;;23.30;35.80;;;26.83;16.83;100987.56;5175577;28;20453;-86
2022/04/20 08:50:25;;;;;;;1.75;1.23;;;23.50;35.80;;;27.09;16.51;100974.31;5175813;28;20054;-86
2022/04/20 08:52:58;;;;;;;2.28;1.42;;;23.70;35.30;;;27.92;16.46;100977.03;5177091;28;20488;-86
2022/04/20 08:55:30;;;;;;;2.08;1.20;;;24.20;35.50;;;28.48;16.08;100971.47;5176507;28;20054;-85
2022/04/20 08:58:04;;;;;;;2.22;1.25;;;24.70;35.10;;;27.16;16.12;100969.66;5176240;28;20129;-85
2022/04/20 09:00:38;;;;;;;2.22;1.17;;;24.50;34.00;;;25.84;17.79;100980.44;5175688;28;20059;-85
2022/04/20 09:03:10;;;;;;;2.75;1.30;;;23.80;35.00;;;26.01;17.70;100975.53;5175933;28;20054;-86
2022/04/20 09:05:42;;;;;;;2.38;1.20;;;23.70;35.50;;;25.89;17.50;100970.53;5177445;28;20046;-86
2022/04/20 09:08:15;;;;;;;3.33;1.30;;;23.70;35.30;;;26.10;18.00;100964.63;5178209;28;20050;-86
2022/04/20 09:10:48;;;;;;;3.72;1.42;;;23.70;36.00;;;26.12;17.94;100968.13;5178449;28;20105;-86
2022/04/20 09:13:33;;;;;;;1.20;1.10;;;23.80;36.00;;;26.00;17.72;100968.44;5176115;28;20380;-86
2022/04/20 09:16:08;;;;;;;1.60;1.02;;;23.80;35.40;;;25.66;18.34;100974.59;5175866;28;20050;-86
2022/04/20 09:18:42;;;;;;;1.70;1.10;;;23.80;36.60;;;24.96;18.80;100960.19;5176010;28;20054;-85
2022/04/20 09:21:15;;;;;;;;;;;23.70;35.90;;;24.27;19.18;100952.72;5176430;28;20096;-86
2022/04/20 09:23:47;;;;;;;2.90;1.40;;;23.30;35.80;;;23.56;19.98;100955.72;5174746;28;19921;-85
2022/04/20 09:26:23;;;;;;;2.78;1.30;;;23.00;36.40;;;22.77;20.73;100949.75;5174690;28;20046;-85
2022/04/20 09:29:06;;;;;;;3.95;1.40;;;22.50;36.70;;;22.46;21.25;100960.72;5174965;28;20553;-85
2022/04/20 09:31:43;;;;;;;2.80;1.33;;;22.20;37.30;;;22.49;22.18;100954.50;5174428;28;20057;-85
2022/04/20 09:34:35;;;;;;;2.88;1.50;;;22.10;38.60;;;21.75;21.74;100951.69;5174840;28;20051;-85
2022/04/20 09:37:14;;;;;;;2.83;1.48;;;21.60;37.50;;;21.38;22.70;100951.06;5175560;28;20042;-84
2022/04/20 09:39:47;;;;;;;3.00;1.48;;;21.30;38.60;;;21.44;23.12;100952.81;5174986;28;20437;-86
2022/04/20 09:42:19;;;;;;;2.42;1.42;;;21.10;39.20;;;21.41;22.77;100945.78;5174463;28;20508;-85
2022/04/20 09:44:59;;;;;;;2.10;1.23;;;21.10;39.00;;;20.56;23.38;100936.50;5181847;28;20082;-87
2022/04/20 09:50:29;;;;;;;2.53;1.70;;;20.20;39.70;;;20.00;24.33;100938.38;5278647;23;20367;-70
2022/04/20 09:53:08;;;;;;;2.25;1.30;;;19.90;40.10;;;19.96;24.17;100938.38;5168300;28;20060;-70
2022/04/20 09:55:41;;;;;;;3.20;1.30;;;19.80;40.20;;;20.01;24.99;100933.94;5145677;28;20054;-70
2022/04/20 09:58:17;;;;;;;3.00;1.30;;;19.70;41.10;;;19.90;25.90;100927.81;5145532;28;20051;-62
2022/04/20 10:00:51;;;;;;;2.47;1.30;;;19.70;42.00;;;20.08;26.84;100925.09;5145553;28;20062;-63
2022/04/20 10:03:26;;;;;;;1.70;1.30;;;19.80;43.10;;;20.21;26.44;100929.53;5145085;28;20050;-63
2022/04/20 10:05:58;;;;;;;2.92;1.45;;;19.90;43.40;;;20.21;25.75;100915.38;5145570;28;20492;-62
2022/04/20 10:08:30;;;;;;;3.08;1.50;;;19.90;42.30;;;20.39;25.35;100914.44;5144860;28;20054;-61
2022/04/20 10:11:04;;;;;;;2.53;1.60;;;20.00;41.80;;;20.27;24.45;100903.00;5144610;28;20046;-62
2022/04/20 10:13:37;;;;;;;1.92;1.30;;;20.10;40.60;;;20.63;25.33;100901.16;5144528;28;20050;-62
2022/04/20 10:16:12;;;;;;;2.97;1.52;;;20.20;41.80;;;20.99;24.54;100901.81;5144547;28;20082;-62
2022/04/20 10:18:50;;;;;;;2.78;1.40;;;20.40;41.70;;;21.28;24.50;100897.25;5144859;28;20047;-61
2022/04/20 10:21:23;;;;;;;4.40;1.48;;;20.60;41.20;;;21.15;23.98;100906.16;5144359;28;20070;-62
2022/04/20 10:24:05;;;;;;;3.50;1.50;;;20.70;40.40;;;20.92;24.30;100889.50;5144403;28;20488;-62
2022/04/20 10:26:38;;;;;;;1.45;1.20;;;20.60;40.60;;;21.09;24.73;100879.69;5144777;28;20559;-64
2022/04/20 10:29:18;;;;;;;2.10;1.48;;;20.60;41.30;;;21.07;24.21;100885.00;5144532;28;20055;-62
2022/04/20 10:31:58;;;;;;;2.90;1.20;;;20.70;40.30;;;21.06;24.13;100882.34;5143850;28;20134;-61
2022/04/20 10:34:33;;;;;;;1.92;1.30;;;20.60;40.60;;;21.09;23.53;100874.38;5144005;28;20097;-63
2022/04/20 10:37:07;;;;;;;2.72;1.35;;;20.70;39.70;;;20.89;23.82;100884.25;5143770;28;20407;-62
2022/04/20 10:39:41;;;;;;;4.38;1.60;;;20.60;39.90;;;20.92;23.45;100876.25;5144148;28;20047;-62
2022/04/20 10:42:24;;;;;;;;;;;20.50;39.40;;;20.58;23.85;100871.16;5144459;28;20050;-64
2022/04/20 10:45:03;;;;;;;2.17;1.42;;;20.40;40.00;;;20.59;24.40;100870.25;5144148;28;19922;-61
2022/04/20 10:47:38;;;;;;;2.00;1.48;;;20.30;40.60;;;20.90;24.25;100875.41;5144197;28;20055;-62
2022/04/20 10:50:16;;;;;;;2.47;1.35;;;20.40;40.80;;;20.93;24.17;100870.06;5144276;28;20058;-63
2022/04/20 10:52:52;;;;;;;2.92;1.42;;;20.50;40.60;;;21.02;23.50;100859.41;5144501;28;20054;-62
2022/04/20 10:55:26;;;;;;;2.92;1.20;;;20.50;39.80;;;21.01;23.67;100862.97;5144412;28;20492;-61
2022/04/20 10:58:04;;;;;;;2.53;1.30;;;20.50;39.90;;;20.72;23.71;100850.75;5144207;28;20051;-63
2022/04/20 11:00:37;;;;;;;1.55;1.23;;;20.40;39.70;;;20.61;24.02;100852.63;5144165;28;20138;-61
2022/04/20 11:03:12;;;;;;;3.30;1.30;;;20.30;40.10;;;20.67;24.40;100852.59;5144044;28;20055;-64
2022/04/20 11:05:54;;;;;;;1.85;1.30;;;20.30;40.50;;;20.44;24.88;100849.13;5143887;28;20137;-63
2022/04/20 11:08:26;;;;;;;1.85;1.23;;;20.20;41.10;;;20.56;24.65;100847.34;5143893;28;20065;-62